^^
Weerstation Genderen Historische Gegevens
 
Daily Summary for June 17, 2021 Units:  Metric    English   Both
Daily Weekly Monthly Yearly
  Current: High: Low: Average:
Temperature: 27.2 °C 30.5 °C 20 °C 24.9 °C
Dew Point: 19.3 °C 20.1 °C 15.2 °C 17.7 °C
Humidity: 62% 78% 48.3% 65%
Wind Speed: 11.1km/h 16.1km/h 0km/h 5.5km/h
Wind Gust: 7.7km/h 14.3km/h - -
WindWNW - - SW
Pressure: 1010.6 hPa 1010.7 hPa 1007.8 hPa -
Precipitation: 0.0 mm      
 
 
Tabular Data for June 17, 2021
Time Temperature Dew Point Pressure Wind Wind Speed Wind Gust Humidity Rainfall Rate (Hourly) solar
00:04 22.1 °C 17 °C 1010.1 hPa Calm     73% 0.0 mm W/m2
00:09 21.9 °C 16.9 °C 1010.1 hPa Calm     73% 0.0 mm W/m2
00:14 21.8 °C 16.9 °C 1010.0 hPa Calm     73.7% 0.0 mm W/m2
00:19 21.7 °C 16.9 °C 1010.0 hPa Calm     74% 0.0 mm W/m2
00:24 21.6 °C 16.9 °C 1010.0 hPa Calm     74.9% 0.0 mm W/m2
00:29 21.5 °C 16.9 °C 1010.0 hPa Calm     75.4% 0.0 mm W/m2
00:34 21.4 °C 17 °C 1010.0 hPa Calm     76% 0.0 mm W/m2
00:39 21.3 °C 17 °C 1009.9 hPa Calm     76.9% 0.0 mm W/m2
00:44 21.2 °C 17 °C 1009.9 hPa Calm     77% 0.0 mm W/m2
00:49 21.2 °C 17.1 °C 1009.8 hPa Calm     77.4% 0.0 mm W/m2
00:54 21.3 °C 17.2 °C 1009.7 hPa Calm     77.6% 0.0 mm W/m2
00:59 21.3 °C 17.1 °C 1009.6 hPa Calm     77% 0.0 mm W/m2
01:04 21.3 °C 17.1 °C 1009.5 hPa Calm     77% 0.0 mm W/m2
01:09 21.3 °C 17.1 °C 1009.4 hPa WNW 4.7 km/h 2.6 km/h 77% 0.0 mm W/m2
01:14 21.3 °C 17.1 °C 1009.3 hPa WNW 0.4 km/h   77% 0.0 mm W/m2
01:19 21.3 °C 17.1 °C 1009.3 hPa Calm     77% 0.0 mm W/m2
01:24 21.4 °C 17.2 °C 1009.2 hPa Calm     77% 0.0 mm W/m2
01:29 21.4 °C 17.1 °C 1009.1 hPa WNW 5 km/h 3.1 km/h 76.6% 0.0 mm W/m2
01:34 21.4 °C 17.1 °C 1009.0 hPa WNW 3.4 km/h 1.1 km/h 76% 0.0 mm W/m2
01:39 21.4 °C 17 °C 1008.9 hPa WNW 0.6 km/h   76% 0.0 mm W/m2
01:44 21.4 °C 17 °C 1009.0 hPa Calm     76% 0.0 mm W/m2
01:49 21.4 °C 17 °C 1009.0 hPa Calm     76% 0.0 mm W/m2
01:54 21.3 °C 17 °C 1009.0 hPa Calm     76% 0.0 mm W/m2
01:59 21.3 °C 16.9 °C 1009.0 hPa Calm     76% 0.0 mm W/m2
02:04 21.3 °C 16.9 °C 1009.0 hPa Calm     76% 0.0 mm W/m2
02:09 21.2 °C 16.8 °C 1009.0 hPa Calm     76% 0.0 mm W/m2
02:14 21.2 °C 16.8 °C 1009.0 hPa Calm     76% 0.0 mm W/m2
02:19 21.1 °C 16.7 °C 1008.9 hPa WNW 2.5 km/h 1.4 km/h 76% 0.0 mm W/m2
02:29 21 °C 16.6 °C 1008.9 hPa Calm     76% 0.0 mm W/m2
02:34 20.9 °C 16.7 °C 1008.8 hPa Calm     76.6% 0.0 mm W/m2
02:39 20.8 °C 16.7 °C 1008.8 hPa Calm     77.1% 0.0 mm W/m2
02:44 20.8 °C 16.8 °C 1008.7 hPa Calm     78% 0.0 mm W/m2
02:49 20.8 °C 16.8 °C 1008.7 hPa Calm     78% 0.0 mm W/m2
02:54 20.7 °C 16.7 °C 1008.7 hPa Calm     78% 0.0 mm W/m2
02:59 20.7 °C 16.7 °C 1008.7 hPa Calm     77.8% 0.0 mm W/m2
03:04 20.7 °C 16.6 °C 1008.7 hPa Calm     77% 0.0 mm W/m2
03:09 20.8 °C 16.6 °C 1008.6 hPa Calm     77% 0.0 mm W/m2
03:14 20.7 °C 16.3 °C 1008.7 hPa Calm     76% 0.0 mm W/m2
03:19 20.7 °C 16.3 °C 1008.7 hPa Calm     76% 0.0 mm W/m2
03:24 20.6 °C 16.3 °C 1008.7 hPa Calm     76% 0.0 mm W/m2
03:29 20.6 °C 16.1 °C 1008.7 hPa Calm     75.4% 0.0 mm W/m2
03:34 20.7 °C 16 °C 1008.7 hPa WNW 0.5 km/h 0.2 km/h 74.7% 0.0 mm W/m2
03:39 20.7 °C 15.9 °C 1008.7 hPa Calm     73.7% 0.0 mm W/m2
03:44 20.8 °C 15.8 °C 1008.7 hPa Calm     73% 0.0 mm W/m2
03:49 20.8 °C 15.8 °C 1008.6 hPa Calm     73% 0.0 mm W/m2
03:54 20.9 °C 15.6 °C 1008.6 hPa Calm     72.1% 0.0 mm W/m2
03:59 20.9 °C 15.7 °C 1008.6 hPa Calm     72% 0.0 mm W/m2
04:04 20.9 °C 15.7 °C 1008.5 hPa Calm     72% 0.0 mm W/m2
04:09 20.9 °C 15.7 °C 1008.4 hPa Calm     72% 0.0 mm W/m2
04:14 20.9 °C 15.7 °C 1008.4 hPa Calm     72% 0.0 mm W/m2
04:19 20.8 °C 15.6 °C 1008.4 hPa Calm     72% 0.0 mm W/m2
04:24 20.8 °C 15.6 °C 1008.3 hPa Calm     72.4% 0.0 mm W/m2
04:29 20.7 °C 15.7 °C 1008.2 hPa Calm     73% 0.0 mm W/m2
04:34 20.6 °C 15.6 °C 1008.2 hPa Calm     73% 0.0 mm W/m2
04:39 20.6 °C 15.7 °C 1008.2 hPa Calm     73.5% 0.0 mm W/m2
04:44 20.5 °C 15.5 °C 1008.2 hPa Calm     73% 0.0 mm W/m2
04:49 20.5 °C 15.6 °C 1008.1 hPa Calm     73.6% 0.0 mm W/m2
04:54 20.4 °C 15.6 °C 1008.1 hPa Calm     73.6% 0.0 mm W/m2
04:59 20.4 °C 15.5 °C 1008.1 hPa Calm     73.4% 0.0 mm W/m2
05:04 20.3 °C 15.5 °C 1008.1 hPa Calm     74% 0.0 mm W/m2
05:09 20.2 °C 15.4 °C 1008.0 hPa Calm     74% 0.0 mm W/m2
05:14 20.1 °C 15.5 °C 1008.0 hPa Calm     74.8% 0.0 mm W/m2
05:19 20 °C 15.5 °C 1008.0 hPa Calm     75% 0.0 mm W/m2
05:24 20 °C 15.3 °C 1008.1 hPa Calm     74.2% 0.0 mm W/m2
05:29 20 °C 15.2 °C 1008.0 hPa Calm     74.1% 0.0 mm W/m2
05:34 20 °C 15.4 °C 1008.0 hPa Calm     75% 0.0 mm W/m2
05:39 20 °C 15.5 °C 1007.9 hPa Calm     75% 0.0 mm W/m2
05:44 20.1 °C 15.3 °C 1007.9 hPa Calm     74.1% 0.0 mm W/m2
05:49 20.1 °C 15.3 °C 1007.9 hPa Calm     74% 0.0 mm W/m2
05:54 20.2 °C 15.4 °C 1007.9 hPa Calm     74% 0.0 mm W/m2
05:59 20.2 °C 15.4 °C 1008.0 hPa Calm     74% 0.0 mm W/m2
06:04 20.2 °C 15.4 °C 1007.9 hPa Calm     74% 0.0 mm W/m2
06:09 20.2 °C 15.5 °C 1007.9 hPa Calm     74% 0.0 mm W/m2
06:14 20.3 °C 15.6 °C 1007.9 hPa SSE 4.5 km/h 3.9 km/h 74% 0.0 mm W/m2
06:19 20.5 °C 15.7 °C 1008.0 hPa SSE 1 km/h 0.5 km/h 74% 0.0 mm W/m2
06:24 20.6 °C 15.8 °C 1007.9 hPa South 3 km/h 0.8 km/h 74.3% 0.0 mm W/m2
06:29 20.6 °C 15.9 °C 1007.9 hPa South 2.5 km/h 0.8 km/h 74.4% 0.0 mm W/m2
06:34 20.7 °C 16 °C 1007.9 hPa South 2 km/h 0.3 km/h 74% 0.0 mm W/m2
06:39 20.8 °C 16 °C 1007.9 hPa South 0.4 km/h 0.2 km/h 74% 0.0 mm W/m2
06:44 20.9 °C 16 °C 1007.9 hPa South 1.6 km/h 0.2 km/h 74% 0.0 mm W/m2
06:49 20.9 °C 16.1 °C 1007.9 hPa South 1.3 km/h 0.6 km/h 74% 0.0 mm W/m2
06:54 21.1 °C 16.2 °C 1007.9 hPa South 0.8 km/h 1 km/h 74% 0.0 mm W/m2
06:59 21.2 °C 16.4 °C 1008.0 hPa South 1.7 km/h 1 km/h 74% 0.0 mm W/m2
07:04 21.4 °C 16.5 °C 1007.9 hPa South 2.1 km/h 0.5 km/h 74% 0.0 mm W/m2
07:09 21.5 °C 16.5 °C 1007.9 hPa South 4.2 km/h 1.8 km/h 73.3% 0.0 mm W/m2
07:14 21.7 °C 16.6 °C 1007.8 hPa SSE 3.5 km/h 1.3 km/h 72.6% 0.0 mm W/m2
07:19 21.9 °C 16.6 °C 1007.9 hPa SSE 2.2 km/h 1.1 km/h 72% 0.0 mm W/m2
07:24 22.1 °C 16.8 °C 1008.0 hPa SSE 2.4 km/h 1.3 km/h 72% 0.0 mm W/m2
07:29 22.2 °C 16.8 °C 1008.0 hPa SSE 0.8 km/h 1 km/h 71.3% 0.0 mm W/m2
07:34 22.4 °C 16.9 °C 1008.0 hPa SSE 4.2 km/h 2.1 km/h 71% 0.0 mm W/m2
07:39 22.7 °C 17 °C 1008.0 hPa SE 4 km/h 3.9 km/h 70.4% 0.0 mm W/m2
07:44 22.7 °C 16.7 °C 1008.1 hPa SE 4.5 km/h 3.5 km/h 69% 0.0 mm W/m2
07:49 22.7 °C 16.7 °C 1008.1 hPa SE 3.2 km/h 1.6 km/h 69.2% 0.0 mm W/m2
07:54 22.6 °C 16.9 °C 1008.1 hPa SE 1.9 km/h 0.6 km/h 70% 0.0 mm W/m2
07:59 22.7 °C 16.9 °C 1008.1 hPa SE 3.2 km/h 3.9 km/h 70% 0.0 mm W/m2
08:04 22.7 °C 16.9 °C 1008.2 hPa SSE 3.8 km/h 1.1 km/h 70% 0.0 mm W/m2
08:09 22.8 °C 16.8 °C 1008.2 hPa SSE 2.9 km/h 0.8 km/h 69.2% 0.0 mm W/m2
08:14 22.8 °C 16.8 °C 1008.2 hPa SSE 3.3 km/h 1.4 km/h 69% 0.0 mm W/m2
08:19 22.8 °C 16.8 °C 1008.3 hPa SSE 2.7 km/h 1.3 km/h 69% 0.0 mm W/m2
08:24 22.8 °C 16.8 °C 1008.4 hPa SSE 1.8 km/h 1.9 km/h 69% 0.0 mm W/m2
08:29 22.8 °C 16.8 °C 1008.5 hPa South 4.1 km/h 1.8 km/h 69% 0.0 mm W/m2
08:34 22.8 °C 16.8 °C 1008.7 hPa South 3.9 km/h 1.9 km/h 69% 0.0 mm W/m2
08:39 22.8 °C 16.8 °C 1008.8 hPa South 5.3 km/h 3.4 km/h 69% 0.0 mm W/m2
08:44 22.9 °C 16.8 °C 1008.7 hPa SW 5.4 km/h 3.2 km/h 68.5% 0.0 mm W/m2
08:49 23.2 °C 16.8 °C 1008.7 hPa SSW 5.7 km/h 4.2 km/h 67.6% 0.0 mm W/m2
08:54 23.5 °C 16.9 °C 1008.8 hPa SSW 7.7 km/h 5.6 km/h 66.3% 0.0 mm W/m2
08:59 23.8 °C 16.7 °C 1008.9 hPa WSW 8 km/h 5.8 km/h 64.6% 0.0 mm W/m2
09:04 23.9 °C 16.7 °C 1009.0 hPa WSW 4.7 km/h 2.4 km/h 64.2% 0.0 mm W/m2
09:09 24 °C 16.9 °C 1008.9 hPa WSW 5.5 km/h 5.6 km/h 64.7% 0.0 mm W/m2
09:14 24.4 °C 17.4 °C 1008.8 hPa WSW 4.5 km/h 2.7 km/h 65% 0.0 mm W/m2
09:19 24.9 °C 17.7 °C 1008.8 hPa WSW 5.4 km/h 4.3 km/h 64.4% 0.0 mm W/m2
09:24 25.3 °C 17.7 °C 1008.9 hPa WSW 12.1 km/h 9.7 km/h 62.8% 0.0 mm W/m2
09:29 25.6 °C 18 °C 1008.8 hPa West 7.8 km/h 7.4 km/h 63% 0.0 mm W/m2
09:34 25.8 °C 18 °C 1008.9 hPa West 12 km/h 8.5 km/h 62.1% 0.0 mm W/m2
09:39 26 °C 18.2 °C 1008.9 hPa WNW 10.7 km/h 7.7 km/h 62% 0.0 mm W/m2
09:44 26.3 °C 18.5 °C 1009.0 hPa West 8.8 km/h 7.9 km/h 62.1% 0.0 mm W/m2
09:49 26.5 °C 18.5 °C 1009.0 hPa West 11.9 km/h 8.4 km/h 61.6% 0.0 mm W/m2
09:54 26.5 °C 18.4 °C 1008.8 hPa WNW 12 km/h 8.2 km/h 61% 0.0 mm W/m2
09:59 26.5 °C 18.4 °C 1008.7 hPa WNW 10.7 km/h 8.5 km/h 61% 0.0 mm W/m2
10:04 26.5 °C 18.4 °C 1008.6 hPa WNW 8.5 km/h 5.6 km/h 61% 0.0 mm W/m2
10:09 26.5 °C 18.3 °C 1008.7 hPa NW 10.9 km/h 6.3 km/h 60.8% 0.0 mm W/m2
10:14 26.5 °C 18.2 °C 1008.7 hPa West 10.4 km/h 6.9 km/h 60.3% 0.0 mm W/m2
10:19 26.5 °C 18.2 °C 1008.7 hPa WNW 10.5 km/h 8.5 km/h 60.4% 0.0 mm W/m2
10:24 26.5 °C 18.2 °C 1008.6 hPa NW 5 km/h 3.7 km/h 60.5% 0.0 mm W/m2
10:29 26.5 °C 18.1 °C 1008.4 hPa NW 5 km/h 3.5 km/h 59.8% 0.0 mm W/m2
10:34 26.5 °C 18.3 °C 1008.3 hPa NW 5.2 km/h 4.3 km/h 60.6% 0.0 mm W/m2
10:39 26.7 °C 18.2 °C 1008.2 hPa North 4.5 km/h 4.8 km/h 59.9% 0.0 mm W/m2
10:44 26.8 °C 18.2 °C 1008.2 hPa North 5.3 km/h 4.5 km/h 59% 0.0 mm W/m2
10:49 26.9 °C 18.3 °C 1008.0 hPa NE 5.5 km/h 4.2 km/h 59.2% 0.0 mm W/m2
10:54 27.1 °C 18.3 °C 1007.9 hPa NE 5.3 km/h 3.7 km/h 58.8% 0.0 mm W/m2
10:59 27.4 °C 18.3 °C 1008.0 hPa ESE 4.6 km/h 4 km/h 57.5% 0.0 mm W/m2
11:04 27.6 °C 18.4 °C 1008.0 hPa NE 6.1 km/h 4.7 km/h 57.3% 0.0 mm W/m2
11:09 27.5 °C 18.2 °C 1007.9 hPa ENE 5.5 km/h 5.3 km/h 57.1% 0.0 mm W/m2
11:14 27.2 °C 18 °C 1008.0 hPa ENE 4.8 km/h 3.1 km/h 57.5% 0.0 mm W/m2
11:19 27.1 °C 18.1 °C 1008.1 hPa ENE 2.6 km/h 1.6 km/h 58% 0.0 mm W/m2
11:24 27.1 °C 18.1 °C 1008.2 hPa Calm   0.2 km/h 58.3% 0.0 mm W/m2
11:29 27.1 °C 18.3 °C 1008.3 hPa ENE 0.3 km/h 0.2 km/h 58.5% 0.0 mm W/m2
11:34 27.1 °C 18.3 °C 1008.3 hPa Calm     58.7% 0.0 mm W/m2
11:39 27.2 °C 18.2 °C 1008.4 hPa ENE 1.3 km/h 1.3 km/h 58% 0.0 mm W/m2
11:44 27.1 °C 18.2 °C 1008.4 hPa ENE 2.3 km/h 1 km/h 58.3% 0.0 mm W/m2
11:49 27.1 °C 18.5 °C 1008.5 hPa ENE 0.5 km/h 0.2 km/h 59.5% 0.0 mm W/m2
11:54 27.1 °C 18.6 °C 1008.6 hPa ENE 1.9 km/h 1.4 km/h 59.7% 0.0 mm W/m2
11:59 27.2 °C 18.7 °C 1008.6 hPa ENE 2.2 km/h 1.3 km/h 60% 0.0 mm W/m2
12:04 27.2 °C 18.8 °C 1008.5 hPa ENE 4.1 km/h 3.2 km/h 60.2% 0.0 mm W/m2
12:09 27.3 °C 19.2 °C 1008.5 hPa East 3.1 km/h 1.9 km/h 61% 0.0 mm W/m2
12:14 27.7 °C 19.4 °C 1008.5 hPa SE 6.2 km/h 5 km/h 60.4% 0.0 mm W/m2
12:19 28.1 °C 19.3 °C 1008.4 hPa SSE 7.4 km/h 6.1 km/h 59.1% 0.0 mm W/m2
12:24 28.3 °C 19.2 °C 1008.4 hPa SE 7.2 km/h 4.8 km/h 57.8% 0.0 mm W/m2
12:29 28.5 °C 19.2 °C 1008.5 hPa SSW 6.7 km/h 4.3 km/h 57.2% 0.0 mm W/m2
12:34 28.7 °C 19.3 °C 1008.6 hPa SSW 8.6 km/h 6.8 km/h 56.8% 0.0 mm W/m2
12:39 28.9 °C 19.1 °C 1008.6 hPa SSW 7.2 km/h 5.8 km/h 55.7% 0.0 mm W/m2
12:44 29 °C 19.2 °C 1008.7 hPa SSW 9.1 km/h 7.1 km/h 55.5% 0.0 mm W/m2
12:49 29.2 °C 18.9 °C 1008.8 hPa SSW 10.5 km/h 7.6 km/h 53.7% 0.0 mm W/m2
12:54 29.5 °C 18.8 °C 1008.8 hPa SSW 9.8 km/h 6.4 km/h 52.9% 0.0 mm W/m2
12:59 29.5 °C 18.9 °C 1008.8 hPa SSW 9.9 km/h 7.9 km/h 52.8% 0.0 mm W/m2
13:04 29.6 °C 18.7 °C 1008.9 hPa SW 9.9 km/h 7.6 km/h 52% 0.0 mm W/m2
13:09 29.7 °C 18.1 °C 1008.9 hPa SSW 11.4 km/h 8.7 km/h 49.8% 0.0 mm W/m2
13:14 29.9 °C 17.8 °C 1008.9 hPa SSW 15.5 km/h 8.7 km/h 48.3% 0.0 mm W/m2
13:19 30.1 °C 18.2 °C 1008.9 hPa WSW 7.5 km/h 5.5 km/h 48.9% 0.0 mm W/m2
13:24 30.2 °C 18.2 °C 1009.0 hPa WSW 10 km/h 6.9 km/h 48.6% 0.0 mm W/m2
13:29 30.1 °C 18.3 °C 1009.0 hPa WSW 6.3 km/h 4.8 km/h 49.2% 0.0 mm W/m2
13:34 30.2 °C 18.5 °C 1009.0 hPa SW 10.7 km/h 7.2 km/h 49.6% 0.0 mm W/m2
13:39 30.2 °C 18.7 °C 1009.1 hPa WSW 7.5 km/h 6.9 km/h 50% 0.0 mm W/m2
13:44 30.1 °C 18.4 °C 1009.2 hPa WSW 11.1 km/h 9.5 km/h 49.7% 0.0 mm W/m2
13:49 29.9 °C 18.9 °C 1009.3 hPa WSW 9.9 km/h 7.6 km/h 51.7% 0.0 mm W/m2
13:54 29.8 °C 18.9 °C 1009.3 hPa WSW 7.3 km/h 7.2 km/h 51.9% 0.0 mm W/m2
13:59 29.6 °C 18 °C 1009.3 hPa SSW 10.5 km/h 7.6 km/h 49.9% 0.0 mm W/m2
14:04 29.6 °C 18.5 °C 1009.3 hPa SW 7.4 km/h 5.5 km/h 51.4% 0.0 mm W/m2
14:09 30 °C 19.2 °C 1009.3 hPa WSW 8.1 km/h 5.8 km/h 52.3% 0.0 mm W/m2
14:14 30.4 °C 19 °C 1009.4 hPa West 10.7 km/h 6.9 km/h 50.7% 0.0 mm W/m2
14:19 30.5 °C 19 °C 1009.4 hPa West 14.2 km/h 8.4 km/h 50.3% 0.0 mm W/m2
14:24 30.4 °C 19.1 °C 1009.4 hPa WSW 11.6 km/h 10.9 km/h 50.8% 0.0 mm W/m2
14:29 30.4 °C 18.9 °C 1009.5 hPa West 13.8 km/h 11.3 km/h 50.4% 0.0 mm W/m2
14:34 30.4 °C 18.9 °C 1009.5 hPa West 13.7 km/h 14.3 km/h 50.1% 0.0 mm W/m2
14:39 30.2 °C 19 °C 1009.5 hPa West 11.6 km/h 10.6 km/h 51.2% 0.0 mm W/m2
14:44 30.1 °C 19.1 °C 1009.5 hPa West 9.4 km/h 6.1 km/h 51.8% 0.0 mm W/m2
14:49 29.8 °C 19.1 °C 1009.5 hPa West 7.6 km/h 6.4 km/h 52.6% 0.0 mm W/m2
14:54 29.8 °C 19.2 °C 1009.5 hPa West 13.6 km/h 11.6 km/h 52.9% 0.0 mm W/m2
14:59 30 °C 19.4 °C 1009.6 hPa West 12.1 km/h 9.7 km/h 53.1% 0.0 mm W/m2
15:04 30.3 °C 19.5 °C 1009.6 hPa West 11.8 km/h 8.2 km/h 52.5% 0.0 mm W/m2
15:09 30.4 °C 19.3 °C 1009.7 hPa West 13 km/h 13.7 km/h 51.6% 0.0 mm W/m2
15:14 30.1 °C 19.3 °C 1009.7 hPa West 13.3 km/h 10.3 km/h 52.6% 0.0 mm W/m2
15:19 30 °C 19.5 °C 1009.8 hPa WNW 12 km/h 9 km/h 53.4% 0.0 mm W/m2
15:24 29.8 °C 19.8 °C 1009.9 hPa WNW 12.6 km/h 10.3 km/h 54.8% 0.0 mm W/m2
15:29 29.6 °C 20.1 °C 1009.9 hPa WNW 9 km/h 7.2 km/h 56.7% 0.0 mm W/m2
15:34 29.8 °C 19.5 °C 1009.9 hPa West 14.6 km/h 11.4 km/h 54.1% 0.0 mm W/m2
15:39 29.8 °C 19.7 °C 1009.9 hPa West 14.3 km/h 10.8 km/h 54.7% 0.0 mm W/m2
15:44 29.6 °C 19.2 °C 1009.9 hPa West 13.7 km/h 9.2 km/h 53.5% 0.0 mm W/m2
15:49 29.6 °C 19.2 °C 1009.9 hPa West 9.2 km/h 8.5 km/h 53.8% 0.0 mm W/m2
15:54 29.4 °C 18.8 °C 1009.9 hPa WSW 11.4 km/h 9.7 km/h 52.7% 0.0 mm W/m2
15:59 29.4 °C 19.1 °C 1009.9 hPa West 6.9 km/h 5.3 km/h 54.2% 0.0 mm W/m2
16:04 29.4 °C 19.2 °C 1010.0 hPa West 9.9 km/h 8.2 km/h 54.2% 0.0 mm W/m2
16:09 29.3 °C 19.2 °C 1010.1 hPa West 12.1 km/h 9 km/h 54.5% 0.0 mm W/m2
16:14 29.2 °C 18.9 °C 1010.1 hPa West 12.5 km/h 9.5 km/h 54.2% 0.0 mm W/m2
16:19 29.2 °C 19 °C 1010.1 hPa WNW 7.3 km/h 7.2 km/h 54.3% 0.0 mm W/m2
16:24 29.5 °C 19.5 °C 1010.1 hPa West 11.8 km/h 6.8 km/h 54.8% 0.0 mm W/m2
16:29 29.7 °C 19.4 °C 1010.2 hPa West 11.9 km/h 9.2 km/h 53.7% 0.0 mm W/m2
16:34 29.6 °C 19.2 °C 1010.2 hPa West 9.9 km/h 7.6 km/h 53.8% 0.0 mm W/m2
16:39 29.1 °C 18.9 °C 1010.2 hPa WNW 14.3 km/h 12.6 km/h 54.1% 0.0 mm W/m2
16:44 28.4 °C 18.9 °C 1010.2 hPa WNW 14.2 km/h 12.1 km/h 56.5% 0.0 mm W/m2
16:49 28.1 °C 19.1 °C 1010.2 hPa WNW 12.7 km/h 9.8 km/h 58.4% 0.0 mm W/m2
16:54 28.2 °C 19.2 °C 1010.3 hPa WNW 12.9 km/h 9 km/h 58.2% 0.0 mm W/m2
16:59 28.4 °C 19.1 °C 1010.3 hPa WNW 15.1 km/h 9.7 km/h 57.3% 0.0 mm W/m2
17:04 28.4 °C 19.2 °C 1010.3 hPa WNW 12.1 km/h 8.5 km/h 57.6% 0.0 mm W/m2
17:09 28.3 °C 19.3 °C 1010.3 hPa WNW 9.2 km/h 9.8 km/h 58% 0.0 mm W/m2
17:14 28.3 °C 19.5 °C 1010.4 hPa WNW 14.7 km/h 12.9 km/h 58.9% 0.0 mm W/m2
17:19 28.1 °C 19.5 °C 1010.4 hPa WNW 16.1 km/h 13 km/h 59.6% 0.0 mm W/m2
17:24 28 °C 19.5 °C 1010.5 hPa WNW 12.3 km/h 9.3 km/h 59.7% 0.0 mm W/m2
17:29 27.9 °C 19.3 °C 1010.5 hPa WNW 15.3 km/h 13 km/h 59.8% 0.0 mm W/m2
17:34 27.8 °C 19.4 °C 1010.5 hPa WNW 14.1 km/h 12.4 km/h 60.7% 0.0 mm W/m2
17:39 27.6 °C 19.5 °C 1010.5 hPa WNW 15.7 km/h 11.7 km/h 61.2% 0.0 mm W/m2
17:44 27.4 °C 19.5 °C 1010.5 hPa WNW 14.7 km/h 10 km/h 62.1% 0.0 mm W/m2
17:49 27.6 °C 19.9 °C 1010.5 hPa WNW 12.4 km/h 7.1 km/h 62.9% 0.0 mm W/m2
17:54 27.6 °C 19.7 °C 1010.5 hPa NW 14.7 km/h 10.6 km/h 62% 0.0 mm W/m2
17:59 27.6 °C 19.7 °C 1010.5 hPa WNW 11.6 km/h 7.7 km/h 62.5% 0.0 mm W/m2
18:04 27.7 °C 19.8 °C 1010.5 hPa WNW 13.1 km/h 11.1 km/h 62.2% 0.0 mm W/m2
18:09 27.7 °C 19.8 °C 1010.5 hPa WNW 7.5 km/h 6.4 km/h 62.2% 0.0 mm W/m2
18:14 27.7 °C 19.6 °C 1010.5 hPa WNW 11.4 km/h 7.4 km/h 61.4% 0.0 mm W/m2
18:19 27.6 °C 19.7 °C 1010.6 hPa WNW 9.7 km/h 7.6 km/h 62.2% 0.0 mm W/m2
18:24 27.6 °C 19.6 °C 1010.7 hPa WNW 15.9 km/h 13.2 km/h 61.7% 0.0 mm W/m2
18:29 27.6 °C 19.7 °C 1010.7 hPa WNW 11.5 km/h 10 km/h 62.2% 0.0 mm W/m2
18:34 27.7 °C 19.6 °C 1010.6 hPa NW 8.8 km/h 6.9 km/h 61.6% 0.0 mm W/m2
18:39 27.6 °C 19.4 °C 1010.6 hPa WNW 13.7 km/h 11.1 km/h 61.2% 0.0 mm W/m2
18:44 27.3 °C 19.4 °C 1010.7 hPa WNW 8.7 km/h 8.4 km/h 62% 0.0 mm W/m2
18:45 27.2 °C 19.3 °C 1010.6 hPa WNW 11.1 km/h 7.7 km/h 62% 0.0 mm W/m2
Genderen, Netherlands, EU
Compliments of Weather Underground - 2 mb